Метеостанция


АнтоновUKKM 172130Z AUTO 19003MPS 2000 BR 09/09 Q1022
БориспольUKBB 172130Z 23002MPS 0800 R18L/P2000N R18R/1000VP2000D PRFG FEW005 08/08 Q1022 R88/CLRD// TEMPO 0300 FG VV002
Гаврышовка (Винница)UKWW 171930Z 00000MPS 0050 FG SKC 11/11 Q1024 R13/0///65 NOSIG
ДнепропетровскUKDD 172157Z 31003MPS 0000 R26/0325N FG SKC 08/08 Q1022 R26/090070 NOSIG
ДонецкNo METAR available for UKCC.
ЖуляныUKKK 172130Z 25002MPS 0200 R26/P2000D FG NSC 07/07 Q1022 R26/CLRD70 NOSIG
Запорожье(Мокрая)UKDE 172134Z 29003MPS 0050 R02/0275N FG SCT100 09/09 Q1022 R02/CLRD70 NOSIG
Ивано-ФранковскUKLI 171900Z 00000MPS 4800 BR FEW040 SCT100 10/10 Q1023 R28/090070 NOSIG
Кривой РогUKDR 172146Z 32002MPS 1400 R36/P2000N BR SKC 11/10 Q1023 R36/09//70 TEMPO 0400 FG BKN002
ЛуганскNo METAR available for UKCW.
ЛьвовUKLL 172130Z 18001MPS 1400 R31/P2000 BR SKC 08/07 Q1023 R31/CLRD// TEMPO 0400 FG VV003
МариупольNo METAR available for UKCM.
НиколаевUKON 171800Z 03005MPS CAVOK 15/12 Q1023 NOSIG
ОдессаUKOO 172130Z 07003MPS CAVOK 14/12 Q1024 R34/090060 NOSIG
РовноUKLR 171500Z 10003MPS CAVOK 15/13 Q1023 NOSIG
СимферопольNo METAR available for UKFF.
УжгородUKLU 171900Z 00000MPS 5000 BR SKC 12/10 Q1024 NOSIG
ХарьковUKHH 172130Z 30002MPS 2300 BR SKC 09/08 Q1021 R25/0///66 BECMG 1000
ЧеркассыNo METAR available for UKKE.
ЧерновцыUKLN 171930Z 23002MPS CAVOK 15/10 Q1024 R15/09//70 NOSIG
Скачать:
Скачать этот файл (Metar_шпаргалка.jpg)Расшифровка METAR[ ]4799 Кб
Вся информация, которая имеется в использовании на сайте и доступная для скачивания, получена исключительно из открытых источников информации сети Интернет, всякое совпадение с данными, имеющими ограничения в доступе, случайное и не является преднамеренным.